createdAt,value
2023-02-14T00:02:13.037Z,16.45
2023-02-14T00:04:44.164Z,16.80
2023-02-14T00:07:13.586Z,15.23
2023-02-14T00:09:41.296Z,15.00
2023-02-14T00:12:10.814Z,16.48
2023-02-14T00:14:56.344Z,17.42
2023-02-14T00:17:24.061Z,17.33
2023-02-14T00:19:51.789Z,14.82
2023-02-14T00:22:19.849Z,16.15
2023-02-14T00:24:48.521Z,16.45
2023-02-14T00:27:17.637Z,16.10
2023-02-14T00:29:45.687Z,15.25
2023-02-14T00:32:13.375Z,15.77
2023-02-14T00:34:41.566Z,16.13
2023-02-14T00:37:11.780Z,17.35
2023-02-14T00:39:39.550Z,16.48
2023-02-14T00:42:07.322Z,16.95
2023-02-14T00:44:36.410Z,16.75
2023-02-14T00:47:04.794Z,15.80
2023-02-14T00:49:32.509Z,16.98
2023-02-14T00:52:00.817Z,14.95
2023-02-14T00:54:28.866Z,17.02
2023-02-14T00:57:00.318Z,17.02
2023-02-14T00:59:28.246Z,15.43
2023-02-14T01:01:57.350Z,16.20
2023-02-14T01:04:25.397Z,15.68
2023-02-14T01:06:53.907Z,16.13
2023-02-14T01:09:22.795Z,17.83
2023-02-14T01:11:50.639Z,17.08
2023-02-14T01:14:18.553Z,15.63
2023-02-14T01:16:46.722Z,15.90
2023-02-14T01:19:15.890Z,15.05
2023-02-14T01:21:44.786Z,15.23
2023-02-14T01:24:13.323Z,13.95
2023-02-14T01:26:43.895Z,15.00
2023-02-14T01:29:12.347Z,15.82
2023-02-14T01:31:40.287Z,16.10
2023-02-14T01:34:08.098Z,16.48
2023-02-14T01:36:39.154Z,16.58
2023-02-14T01:39:09.626Z,17.77
2023-02-14T01:41:39.623Z,17.15
2023-02-14T01:44:09.286Z,17.73
2023-02-14T01:46:38.326Z,16.20
2023-02-14T01:49:12.055Z,16.80
2023-02-14T01:51:44.205Z,17.88
2023-02-14T01:54:12.444Z,17.90
2023-02-14T01:56:42.956Z,17.77
2023-02-14T01:59:14.026Z,17.77
2023-02-14T02:01:43.995Z,16.98
2023-02-14T02:04:13.808Z,17.20
2023-02-14T02:06:45.498Z,16.58
2023-02-14T02:09:16.689Z,16.60
2023-02-14T02:11:44.805Z,17.33
2023-02-14T02:14:15.945Z,16.80
2023-02-14T02:17:03.337Z,16.48
2023-02-14T02:19:55.687Z,16.95
2023-02-14T02:22:51.848Z,17.45
2023-02-14T02:25:34.682Z,16.23
2023-02-14T02:28:20.615Z,16.52
2023-02-14T02:31:12.716Z,17.02
2023-02-14T02:34:20.190Z,15.65
2023-02-14T02:36:52.932Z,17.20
2023-02-14T02:39:42.460Z,16.38
2023-02-14T02:42:20.985Z,16.48
2023-02-14T02:44:53.265Z,16.77
2023-02-14T02:47:27.315Z,16.92
2023-02-14T02:50:15.621Z,17.05
2023-02-14T02:53:04.250Z,15.77
2023-02-14T02:55:54.032Z,16.15
2023-02-14T02:58:23.517Z,16.02
2023-02-14T03:00:53.348Z,17.83
2023-02-14T03:03:42.333Z,17.00
2023-02-14T03:06:10.089Z,16.98
2023-02-14T03:08:39.591Z,16.77
2023-02-14T03:11:07.353Z,17.23
2023-02-14T03:13:55.545Z,16.85
2023-02-14T03:16:27.520Z,15.68
2023-02-14T03:19:49.179Z,16.17
2023-02-14T03:22:23.066Z,18.27
2023-02-14T03:24:55.501Z,18.20
2023-02-14T03:27:27.081Z,17.67
2023-02-14T03:29:59.443Z,17.20
2023-02-14T03:32:37.075Z,16.58
2023-02-14T03:35:14.029Z,16.80
2023-02-14T03:37:45.818Z,17.60
2023-02-14T03:40:19.128Z,17.52
2023-02-14T03:42:49.812Z,18.10
2023-02-14T03:45:23.529Z,17.90
2023-02-14T03:47:52.546Z,16.92
2023-02-14T03:50:21.369Z,17.23
2023-02-14T03:52:51.712Z,18.75
2023-02-14T03:55:25.076Z,17.92
2023-02-14T03:57:56.194Z,18.25
2023-02-14T04:00:24.088Z,18.27
2023-02-14T04:02:55.701Z,17.23
2023-02-14T04:05:25.634Z,18.48
2023-02-14T04:07:55.342Z,18.02
2023-02-14T04:10:24.818Z,18.33
2023-02-14T04:12:52.913Z,19.35
2023-02-14T04:15:20.745Z,19.63
2023-02-14T04:18:20.574Z,19.25
2023-02-14T04:20:48.301Z,18.45
2023-02-14T04:23:16.419Z,19.45
2023-02-14T04:25:46.172Z,18.85
2023-02-14T04:28:14.016Z,18.92
2023-02-14T04:30:41.916Z,19.40
2023-02-14T04:33:10.598Z,20.42
2023-02-14T04:35:38.281Z,18.92
2023-02-14T04:38:06.170Z,18.70
2023-02-14T04:40:33.908Z,20.85
2023-02-14T04:43:04.551Z,18.48
2023-02-14T04:45:32.283Z,19.13
2023-02-14T04:48:00.116Z,19.40
2023-02-14T04:50:27.881Z,20.25
2023-02-14T04:52:55.788Z,19.60
2023-02-14T04:55:23.533Z,19.83
2023-02-14T04:57:51.251Z,19.90
2023-02-14T05:00:21.401Z,21.08
2023-02-14T05:02:49.664Z,18.88
2023-02-14T05:05:17.634Z,19.95
2023-02-14T05:07:47.717Z,18.92
2023-02-14T05:10:15.930Z,19.58
2023-02-14T05:12:43.613Z,20.13
2023-02-14T05:15:11.449Z,19.58
2023-02-14T05:17:40.561Z,20.73
2023-02-14T05:20:09.936Z,20.90
2023-02-14T05:22:37.651Z,19.67
2023-02-14T05:25:05.809Z,20.80
2023-02-14T05:27:33.605Z,20.00
2023-02-14T05:30:01.435Z,21.23
2023-02-14T05:32:29.168Z,19.70
2023-02-14T05:35:00.761Z,20.77
2023-02-14T05:37:28.926Z,21.10
2023-02-14T05:39:56.578Z,20.27
2023-02-14T05:42:24.260Z,19.95
2023-02-14T05:44:51.887Z,21.33
2023-02-14T05:47:19.624Z,20.52
2023-02-14T05:49:47.300Z,19.85
2023-02-14T05:52:16.362Z,20.17
2023-02-14T05:54:44.144Z,21.65
2023-02-14T05:57:12.022Z,21.60
2023-02-14T05:59:39.997Z,19.98
2023-02-14T06:02:07.774Z,22.33
2023-02-14T06:04:35.740Z,20.83
2023-02-14T06:07:03.547Z,21.02
2023-02-14T06:09:32.718Z,21.52
2023-02-14T06:12:00.475Z,22.20
2023-02-14T06:14:28.196Z,21.98
2023-02-14T06:16:55.911Z,21.55
2023-02-14T06:19:23.678Z,21.33
2023-02-14T06:21:51.614Z,20.58
2023-02-14T06:24:19.389Z,20.08
2023-02-14T06:26:48.550Z,20.70
2023-02-14T06:29:18.058Z,21.10
2023-02-14T06:31:46.685Z,20.00
2023-02-14T06:34:16.134Z,22.08
2023-02-14T06:36:44.096Z,20.88
2023-02-14T06:39:11.820Z,21.77
2023-02-14T06:41:39.493Z,20.85
2023-02-14T06:44:10.293Z,20.95
2023-02-14T06:46:37.975Z,21.08
2023-02-14T06:49:05.885Z,21.40
2023-02-14T06:51:33.596Z,20.90
2023-02-14T06:54:01.215Z,20.92
2023-02-14T06:56:29.051Z,20.08
2023-02-14T06:58:56.701Z,20.30
2023-02-14T07:01:26.286Z,19.98
2023-02-14T07:03:53.977Z,21.17
2023-02-14T07:06:21.902Z,19.98
2023-02-14T07:08:49.629Z,20.55
2023-02-14T07:11:17.313Z,20.70
2023-02-14T07:13:45.330Z,20.42
2023-02-14T07:16:13.123Z,21.80
2023-02-14T07:18:42.227Z,20.42
2023-02-14T07:21:09.916Z,21.27
2023-02-14T07:23:37.599Z,21.17
2023-02-14T07:26:06.231Z,19.75
2023-02-14T07:28:34.174Z,20.75
2023-02-14T07:31:02.844Z,20.42
2023-02-14T07:33:30.797Z,23.60
2023-02-14T07:35:59.928Z,26.55
2023-02-14T07:38:30.482Z,24.88
2023-02-14T07:40:58.832Z,21.95
2023-02-14T07:43:27.108Z,21.83
2023-02-14T07:45:55.342Z,20.45
2023-02-14T07:48:23.395Z,19.85
2023-02-14T07:50:51.118Z,18.90
2023-02-14T07:53:20.470Z,18.48
2023-02-14T07:55:50.887Z,18.90
2023-02-14T07:58:18.781Z,19.50
2023-02-14T08:00:47.322Z,18.92
2023-02-14T08:03:15.044Z,19.30
2023-02-14T08:05:43.293Z,19.30
2023-02-14T08:08:11.069Z,19.85
2023-02-14T08:10:40.161Z,19.13
2023-02-14T08:13:07.897Z,19.30
2023-02-14T08:15:53.781Z,19.58
2023-02-14T08:18:23.274Z,19.92
2023-02-14T08:20:51.334Z,19.88
2023-02-14T08:23:19.663Z,19.83
2023-02-14T08:25:49.478Z,20.63
2023-02-14T08:28:18.061Z,18.25
2023-02-14T08:30:46.644Z,17.63
2023-02-14T08:33:14.421Z,19.98
2023-02-14T08:35:42.251Z,18.67
2023-02-14T08:38:10.362Z,18.67
2023-02-14T08:40:38.376Z,18.90
2023-02-14T08:43:08.437Z,16.75
2023-02-14T08:45:36.374Z,17.58
2023-02-14T08:48:07.112Z,17.45
2023-02-14T08:50:34.997Z,17.13
2023-02-14T08:53:03.168Z,17.50
2023-02-14T08:55:30.986Z,18.17
2023-02-14T08:58:00.460Z,16.98
2023-02-14T09:00:29.953Z,16.67
2023-02-14T09:02:57.620Z,16.83
2023-02-14T09:05:26.377Z,17.35
2023-02-14T09:07:55.978Z,16.45
2023-02-14T09:10:24.458Z,16.83
2023-02-14T09:12:52.685Z,19.95
2023-02-14T09:15:20.725Z,16.30
2023-02-14T09:17:51.072Z,16.58
2023-02-14T09:20:18.739Z,15.45
2023-02-14T09:22:48.665Z,16.45
2023-02-14T09:25:16.772Z,15.30
2023-02-14T09:27:44.429Z,16.00
2023-02-14T09:30:13.756Z,15.80
2023-02-14T09:32:41.502Z,15.45
2023-02-14T09:35:28.637Z,16.50
2023-02-14T09:38:14.120Z,15.95
2023-02-14T09:40:42.579Z,14.95
2023-02-14T09:43:13.327Z,15.13
2023-02-14T09:45:41.339Z,14.93
2023-02-14T09:48:13.289Z,14.23
2023-02-14T09:50:45.467Z,15.80
2023-02-14T09:53:19.844Z,15.13
2023-02-14T09:55:52.120Z,14.25
2023-02-14T09:58:24.037Z,15.27
2023-02-14T10:00:57.364Z,14.82
2023-02-14T10:03:40.748Z,15.45
2023-02-14T10:06:23.544Z,14.70
2023-02-14T10:09:00.166Z,13.82
2023-02-14T10:11:29.131Z,14.00
2023-02-14T10:14:01.701Z,14.00
2023-02-14T10:16:33.386Z,14.65
2023-02-14T10:19:03.874Z,20.48
2023-02-14T10:21:37.426Z,14.38
2023-02-14T10:24:12.009Z,14.10
2023-02-14T10:26:41.342Z,13.73
2023-02-14T10:29:14.273Z,13.30
2023-02-14T10:31:50.118Z,14.15
2023-02-14T10:34:22.223Z,13.63
2023-02-14T10:37:01.492Z,13.13
2023-02-14T10:39:53.077Z,13.52
2023-02-14T10:42:28.116Z,13.65
2023-02-14T10:45:01.372Z,13.30
2023-02-14T10:47:36.582Z,13.73
2023-02-14T10:50:12.309Z,14.00
2023-02-14T10:52:46.282Z,14.15
2023-02-14T10:55:31.996Z,13.73
2023-02-14T10:58:04.182Z,13.52
2023-02-14T11:00:34.282Z,13.63
2023-02-14T11:03:05.459Z,14.23
2023-02-14T11:05:36.168Z,14.18
2023-02-14T11:08:14.908Z,12.45
2023-02-14T11:10:42.870Z,12.88
2023-02-14T11:13:29.534Z,12.13
2023-02-14T11:16:00.899Z,13.95
2023-02-14T11:18:33.025Z,13.10
2023-02-14T11:21:02.832Z,12.88
2023-02-14T11:23:35.406Z,12.95
2023-02-14T11:26:05.129Z,12.52
2023-02-14T11:28:32.999Z,13.00
2023-02-14T11:31:01.107Z,13.60
2023-02-14T11:33:36.276Z,12.35
2023-02-14T11:36:06.250Z,13.98
2023-02-14T11:38:38.683Z,12.20
2023-02-14T11:41:09.034Z,13.35
2023-02-14T11:43:38.078Z,11.63
2023-02-14T11:46:09.679Z,13.00
2023-02-14T11:48:39.138Z,13.43
2023-02-14T11:51:09.926Z,13.32
2023-02-14T11:53:46.270Z,12.95
2023-02-14T11:56:14.461Z,13.35
2023-02-14T11:58:47.048Z,12.48
2023-02-14T12:01:24.014Z,13.30
2023-02-14T12:03:52.103Z,14.57
2023-02-14T12:06:25.639Z,12.85
2023-02-14T12:09:11.790Z,13.90
2023-02-14T12:11:39.582Z,13.15
2023-02-14T12:14:21.296Z,12.82
2023-02-14T12:16:53.854Z,13.60
2023-02-14T12:19:26.802Z,13.35
2023-02-14T12:21:58.268Z,12.75
2023-02-14T12:24:32.355Z,13.65
2023-02-14T12:27:05.974Z,13.52
2023-02-14T12:29:37.737Z,13.40
2023-02-14T12:32:15.748Z,13.43
2023-02-14T12:34:43.485Z,12.63
2023-02-14T12:37:18.687Z,12.43
2023-02-14T12:40:03.795Z,13.57
2023-02-14T12:42:45.205Z,13.70
2023-02-14T12:45:18.796Z,13.93
2023-02-14T12:47:54.155Z,13.52
2023-02-14T12:50:46.451Z,13.85
2023-02-14T12:53:30.159Z,12.70
2023-02-14T12:56:07.457Z,13.35
2023-02-14T12:58:50.995Z,14.00
2023-02-14T13:01:38.352Z,13.82
2023-02-14T13:04:40.886Z,13.57
2023-02-14T13:07:17.076Z,12.85
2023-02-14T13:09:50.081Z,12.48
2023-02-14T13:12:32.263Z,13.88
2023-02-14T13:15:10.869Z,13.40
2023-02-14T13:17:43.200Z,13.30
2023-02-14T13:20:25.372Z,12.85
2023-02-14T13:22:53.391Z,13.75
2023-02-14T13:25:31.597Z,13.43
2023-02-14T13:28:02.994Z,13.63
2023-02-14T13:30:32.831Z,13.23
2023-02-14T13:33:04.375Z,13.00
2023-02-14T13:35:32.721Z,13.18
2023-02-14T13:38:03.465Z,13.82
2023-02-14T13:40:32.115Z,13.38
2023-02-14T13:43:01.973Z,13.32
2023-02-14T13:45:57.653Z,13.68
2023-02-14T13:48:26.360Z,14.27
2023-02-14T13:50:56.251Z,13.40
2023-02-14T13:53:32.406Z,15.73
2023-02-14T13:56:00.895Z,13.60
2023-02-14T13:58:30.110Z,14.48
2023-02-14T14:00:57.959Z,14.70
2023-02-14T14:03:55.213Z,14.43
2023-02-14T14:06:23.096Z,14.10
2023-02-14T14:08:54.272Z,13.38
2023-02-14T14:11:52.016Z,13.68
2023-02-14T14:14:37.738Z,13.70
2023-02-14T14:17:29.242Z,15.30
2023-02-14T14:19:57.900Z,14.25
2023-02-14T14:22:26.432Z,14.23
2023-02-14T14:24:56.797Z,15.13
2023-02-14T14:27:26.646Z,16.13
2023-02-14T14:29:58.491Z,14.38
2023-02-14T14:32:29.442Z,14.90
2023-02-14T14:34:59.177Z,13.30
2023-02-14T14:37:28.714Z,13.65
2023-02-14T14:39:58.885Z,14.52
2023-02-14T14:42:29.142Z,14.57
2023-02-14T14:45:00.236Z,14.35
2023-02-14T14:47:30.261Z,14.05
2023-02-14T14:50:00.824Z,14.00
2023-02-14T14:52:37.722Z,14.55
2023-02-14T14:55:08.398Z,13.60
2023-02-14T14:57:37.364Z,14.52
2023-02-14T15:00:27.338Z,13.70
2023-02-14T15:03:04.167Z,13.15
2023-02-14T15:05:35.345Z,14.10
2023-02-14T15:08:23.166Z,15.55
2023-02-14T15:10:54.286Z,13.55
2023-02-14T15:13:44.537Z,14.02
2023-02-14T15:16:18.124Z,14.25
2023-02-14T15:18:46.246Z,13.80
2023-02-14T15:21:15.479Z,14.65
2023-02-14T15:23:44.416Z,14.15
2023-02-14T15:26:18.965Z,15.57
2023-02-14T15:28:55.649Z,13.85
2023-02-14T15:31:27.090Z,14.10
2023-02-14T15:33:54.913Z,13.60
2023-02-14T15:36:25.124Z,13.25
2023-02-14T15:38:53.765Z,13.90
2023-02-14T15:41:23.466Z,13.52
2023-02-14T15:43:53.876Z,13.43
2023-02-14T15:46:32.025Z,13.15
2023-02-14T15:49:01.385Z,13.68
2023-02-14T15:51:31.132Z,12.88
2023-02-14T15:54:00.822Z,13.38
2023-02-14T15:56:30.369Z,12.50
2023-02-14T15:59:03.545Z,12.85
2023-02-14T16:01:33.476Z,13.80
2023-02-14T16:04:03.070Z,13.45
2023-02-14T16:06:35.777Z,13.88
2023-02-14T16:09:04.831Z,12.90
2023-02-14T16:11:35.545Z,13.25
2023-02-14T16:14:21.501Z,13.10
2023-02-14T16:17:01.400Z,13.02
2023-02-14T16:19:34.248Z,12.63
2023-02-14T16:22:01.944Z,13.20
2023-02-14T16:24:30.141Z,12.75
2023-02-14T16:26:58.098Z,14.45
2023-02-14T16:29:25.784Z,12.88
2023-02-14T16:32:14.600Z,12.35
2023-02-14T16:34:47.072Z,12.52
2023-02-14T16:37:21.804Z,14.55
2023-02-14T16:39:50.210Z,14.32
2023-02-14T16:42:18.888Z,12.95
2023-02-14T16:44:46.793Z,13.13
2023-02-14T16:47:15.812Z,13.15
2023-02-14T16:49:45.473Z,14.63
2023-02-14T16:52:15.315Z,15.05
2023-02-14T16:54:43.299Z,15.38
2023-02-14T16:57:17.675Z,14.95
2023-02-14T16:59:45.502Z,14.55
2023-02-14T17:02:13.896Z,13.82
2023-02-14T17:04:42.001Z,13.73
2023-02-14T17:07:11.388Z,13.57
2023-02-14T17:09:41.585Z,14.18
2023-02-14T17:12:14.753Z,13.45
2023-02-14T17:14:43.844Z,13.77
2023-02-14T17:17:11.843Z,13.63
2023-02-14T17:19:39.521Z,14.40
2023-02-14T17:22:08.084Z,14.95
2023-02-14T17:24:37.515Z,14.02
2023-02-14T17:27:06.309Z,13.95
2023-02-14T17:29:34.460Z,15.82
2023-02-14T17:32:02.259Z,16.63
2023-02-14T17:34:32.079Z,16.42
2023-02-14T17:36:59.878Z,16.52
2023-02-14T17:39:28.223Z,16.58
2023-02-14T17:41:57.590Z,16.38
2023-02-14T17:44:25.561Z,15.48
2023-02-14T17:46:54.631Z,15.93
2023-02-14T17:49:22.276Z,17.42
2023-02-14T17:51:50.070Z,16.05
2023-02-14T17:54:17.719Z,17.23
2023-02-14T17:56:45.476Z,16.85
2023-02-14T17:59:14.889Z,20.80
2023-02-14T18:01:43.054Z,20.35
2023-02-14T18:04:11.117Z,19.13
2023-02-14T18:06:40.184Z,18.77
2023-02-14T18:09:08.163Z,18.05
2023-02-14T18:11:35.950Z,17.95
2023-02-14T18:14:04.923Z,17.55
2023-02-14T18:16:34.251Z,16.58
2023-02-14T18:19:03.062Z,15.85
2023-02-14T18:21:34.496Z,15.75
2023-02-14T18:24:02.367Z,16.60
2023-02-14T18:26:30.860Z,16.58
2023-02-14T18:28:58.994Z,16.63
2023-02-14T18:31:27.350Z,18.80
2023-02-14T18:33:56.761Z,19.95
2023-02-14T18:36:25.465Z,18.95
2023-02-14T18:38:54.650Z,17.40
2023-02-14T18:41:23.216Z,17.02
2023-02-14T18:43:51.903Z,15.75
2023-02-14T18:46:22.515Z,16.50
2023-02-14T18:48:50.728Z,16.42
2023-02-14T18:51:21.402Z,18.98
2023-02-14T18:53:52.062Z,18.50
2023-02-14T18:56:21.948Z,17.75
2023-02-14T18:58:52.741Z,16.52
2023-02-14T19:01:22.343Z,16.75
2023-02-14T19:03:50.764Z,16.33
2023-02-14T19:06:20.728Z,16.90
2023-02-14T19:08:49.469Z,16.77
2023-02-14T19:11:21.068Z,15.95
2023-02-14T19:13:50.957Z,16.95
2023-02-14T19:16:21.503Z,18.10
2023-02-14T19:18:50.972Z,17.77
2023-02-14T19:21:22.313Z,16.80
2023-02-14T19:23:50.674Z,16.48
2023-02-14T19:26:20.338Z,15.65
2023-02-14T19:28:49.500Z,17.10
2023-02-14T19:31:17.593Z,16.33
2023-02-14T19:33:48.028Z,16.88
2023-02-14T19:36:17.773Z,17.80
2023-02-14T19:38:48.212Z,17.60
2023-02-14T19:41:17.472Z,18.10
2023-02-14T19:43:45.750Z,18.40
2023-02-14T19:46:14.369Z,19.25
2023-02-14T19:48:44.495Z,23.38
2023-02-14T19:51:16.028Z,20.52
2023-02-14T19:53:44.018Z,18.48
2023-02-14T19:56:13.399Z,17.88
2023-02-14T19:58:42.020Z,18.08
2023-02-14T20:01:19.021Z,18.08
2023-02-14T20:03:47.006Z,17.48
2023-02-14T20:06:15.386Z,16.42
2023-02-14T20:08:43.094Z,17.60
2023-02-14T20:11:23.770Z,17.33
2023-02-14T20:13:51.729Z,17.52
2023-02-14T20:16:19.417Z,18.10
2023-02-14T20:18:47.154Z,16.75
2023-02-14T20:21:17.870Z,18.10
2023-02-14T20:23:46.532Z,17.83
2023-02-14T20:26:16.541Z,18.63
2023-02-14T20:28:44.345Z,18.77
2023-02-14T20:31:14.601Z,17.48
2023-02-14T20:33:42.468Z,17.85
2023-02-14T20:36:11.029Z,17.45
2023-02-14T20:38:38.838Z,19.17
2023-02-14T20:41:07.015Z,19.25
2023-02-14T20:43:36.520Z,19.15
2023-02-14T20:46:06.039Z,18.85
2023-02-14T20:48:35.317Z,18.55
2023-02-14T20:51:11.145Z,18.85
2023-02-14T20:53:39.474Z,21.75
2023-02-14T20:56:07.357Z,19.15
2023-02-14T20:58:37.621Z,20.17
2023-02-14T21:01:09.213Z,19.75
2023-02-14T21:03:37.677Z,20.95
2023-02-14T21:06:07.121Z,20.67
2023-02-14T21:08:34.881Z,21.58
2023-02-14T21:11:03.386Z,20.15
2023-02-14T21:13:31.371Z,21.42
2023-02-14T21:16:03.914Z,22.40
2023-02-14T21:18:31.701Z,21.33
2023-02-14T21:21:05.265Z,22.65
2023-02-14T21:23:33.031Z,22.10
2023-02-14T21:26:00.778Z,22.35
2023-02-14T21:28:28.889Z,22.63
2023-02-14T21:31:05.011Z,22.40
2023-02-14T21:33:33.773Z,23.00
2023-02-14T21:36:06.978Z,21.85
2023-02-14T21:38:34.730Z,21.83
2023-02-14T21:41:05.818Z,22.30
2023-02-14T21:43:35.281Z,23.48
2023-02-14T21:46:05.059Z,22.95
2023-02-14T21:49:02.426Z,23.30
2023-02-14T21:51:31.488Z,22.60
2023-02-14T21:54:00.109Z,22.15
2023-02-14T21:56:28.533Z,25.05
2023-02-14T21:58:57.138Z,23.95
2023-02-14T22:01:27.861Z,23.98
2023-02-14T22:03:56.544Z,23.98
2023-02-14T22:06:25.321Z,23.90
2023-02-14T22:08:54.381Z,23.80
2023-02-14T22:11:23.242Z,21.45
2023-02-14T22:13:51.424Z,23.27
2023-02-14T22:16:20.633Z,21.98
2023-02-14T22:18:49.733Z,21.98
2023-02-14T22:21:19.670Z,24.80
2023-02-14T22:23:47.952Z,23.85
2023-02-14T22:26:17.997Z,25.88
2023-02-14T22:28:47.050Z,26.98
2023-02-14T22:31:16.048Z,25.48
2023-02-14T22:33:44.251Z,25.98
2023-02-14T22:36:13.911Z,26.77
2023-02-14T22:38:42.114Z,27.45
2023-02-14T22:41:11.829Z,28.27
2023-02-14T22:43:40.346Z,28.27
2023-02-14T22:46:09.864Z,27.83
2023-02-14T22:48:38.358Z,27.25
2023-02-14T22:51:10.681Z,26.67
2023-02-14T22:53:39.752Z,28.08
2023-02-14T22:56:14.784Z,28.02
2023-02-14T22:58:43.032Z,29.30
2023-02-14T23:01:14.462Z,29.40
2023-02-14T23:03:42.293Z,27.45
2023-02-14T23:06:10.178Z,27.13
2023-02-14T23:08:40.943Z,27.63
2023-02-14T23:11:10.333Z,27.55
2023-02-14T23:13:55.857Z,30.10
2023-02-14T23:16:41.402Z,29.13
2023-02-14T23:19:29.698Z,29.35
2023-02-14T23:21:57.433Z,30.02
2023-02-14T23:24:26.445Z,34.38
2023-02-14T23:26:55.609Z,32.92
2023-02-14T23:29:23.275Z,29.48
2023-02-14T23:31:51.263Z,35.22
2023-02-14T23:34:19.375Z,32.70
2023-02-14T23:36:47.511Z,29.90
2023-02-14T23:39:15.181Z,29.88
2023-02-14T23:41:50.175Z,28.77
2023-02-14T23:44:20.152Z,27.17
2023-02-14T23:46:48.420Z,31.50
2023-02-14T23:49:16.519Z,30.83
2023-02-14T23:51:44.953Z,29.20
2023-02-14T23:54:12.786Z,29.25
2023-02-14T23:56:40.910Z,29.60
2023-02-14T23:59:10.641Z,27.50
